Time;durP1;ratioP1;P1;durP2;ratioP2;P2;SDS_P1;SDS_P2;PMS_P1;PMS_P2;Temp;Humidity;BMP_temperature;BMP_pressure;BME280_temperature;BME280_humidity;BME280_pressure;Samples;Min_cycle;Max_cycle;Signal;HPM_P1;HPM_P2
2023/08/30 00:01:59;;;;;;;1999.90;999.90;;;;;;;12.91;100.00;94279.38;5008614;28;20206;-57
2023/08/30 00:04:24;;;;;;;1999.90;999.90;;;;;;;12.89;100.00;94273.56;5008385;28;20423;-52
2023/08/30 00:06:49;;;;;;;1999.90;999.90;;;;;;;12.88;100.00;94277.50;5007998;28;20562;-58
2023/08/30 00:09:15;;;;;;;1999.90;999.90;;;;;;;12.86;100.00;94277.22;5008123;28;20195;-54
2023/08/30 00:11:41;;;;;;;1999.90;999.90;;;;;;;12.84;100.00;94276.88;5007834;28;20191;-55
2023/08/30 00:14:06;;;;;;;1999.90;999.90;;;;;;;12.92;100.00;94278.16;5008017;28;20205;-57
2023/08/30 00:16:38;;;;;;;1999.90;999.90;;;;;;;12.92;100.00;94273.44;5007950;28;20194;-56
2023/08/30 00:19:03;;;;;;;1999.90;999.90;;;;;;;12.96;100.00;94282.31;5008093;28;20207;-57
2023/08/30 00:21:29;;;;;;;1999.90;999.90;;;;;;;12.92;100.00;94278.16;5008063;28;20208;-56
2023/08/30 00:23:54;;;;;;;1999.90;999.90;;;;;;;12.96;100.00;94281.53;5007719;28;20242;-52
2023/08/30 00:26:19;;;;;;;1999.90;999.90;;;;;;;12.97;100.00;94283.06;5007702;28;20206;-51
2023/08/30 00:28:45;;;;;;;1999.90;999.90;;;;;;;12.94;100.00;94289.44;5008274;28;20346;-51
2023/08/30 00:31:10;;;;;;;1999.90;999.90;;;;;;;12.91;100.00;94287.59;5008395;28;20199;-54
2023/08/30 00:33:35;;;;;;;1999.90;999.90;;;;;;;12.89;100.00;94284.50;5008143;28;20199;-54
2023/08/30 00:36:01;;;;;;;1999.90;999.90;;;;;;;12.92;100.00;94284.41;5008051;28;20207;-55
2023/08/30 00:38:27;;;;;;;1999.90;999.90;;;;;;;12.90;100.00;94288.81;5007853;28;20238;-56
2023/08/30 00:40:53;;;;;;;1999.90;999.90;;;;;;;12.89;100.00;94284.50;5007628;28;20270;-55
2023/08/30 00:43:20;;;;;;;1999.90;999.90;;;;;;;12.90;100.00;94292.28;5007693;28;20266;-53
2023/08/30 00:45:47;;;;;;;1999.90;999.90;;;;;;;12.93;100.00;94290.66;5007789;28;20199;-53
2023/08/30 00:48:12;;;;;;;1999.90;999.90;;;;;;;12.92;100.00;94283.63;5007547;28;20194;-56
2023/08/30 00:50:39;;;;;;;1999.90;999.90;;;;;;;12.86;100.00;94291.66;5007748;28;20195;-57
2023/08/30 00:53:07;;;;;;;1999.90;999.90;;;;;;;12.85;100.00;94284.66;5007762;28;20261;-58
2023/08/30 00:55:34;;;;;;;1999.90;999.90;;;;;;;12.87;100.00;94281.47;5007415;28;20373;-56
2023/08/30 00:58:01;;;;;;;1999.90;999.90;;;;;;;12.79;100.00;94280.94;5007771;28;20199;-56
2023/08/30 01:00:30;;;;;;;1999.90;999.90;;;;;;;12.79;100.00;94286.41;5007847;28;20210;-57
2023/08/30 01:02:56;;;;;;;1999.90;999.90;;;;;;;12.73;100.00;94287.44;5007827;28;20201;-54
2023/08/30 01:05:22;;;;;;;1999.90;999.90;;;;;;;12.73;100.00;94288.22;5007738;28;20195;-54
2023/08/30 01:07:49;;;;;;;1999.90;999.90;;;;;;;12.74;100.00;94286.22;5007745;28;20264;-57
2023/08/30 01:10:14;;;;;;;1999.90;999.90;;;;;;;12.82;100.00;94290.28;5007398;28;20256;-54
2023/08/30 01:12:45;;;;;;;1999.90;999.90;;;;;;;12.80;100.00;94287.19;5007426;28;20191;-56
2023/08/30 01:15:17;;;;;;;1999.90;999.90;;;;;;;12.90;100.00;94294.28;5007475;28;20236;-54
2023/08/30 01:17:44;;;;;;;1999.90;999.90;;;;;;;12.88;100.00;94289.25;5011181;28;20211;-56
2023/08/30 01:20:14;;;;;;;1999.90;999.90;;;;;;;12.84;100.00;94288.59;5011184;28;20260;-57
2023/08/30 01:23:06;;;;;;;1999.90;999.90;;;;;;;12.84;100.00;94285.88;5010983;28;20233;-56
2023/08/30 01:25:37;;;;;;;1999.90;999.90;;;;;;;12.85;100.00;94287.41;5011458;28;20209;-57
2023/08/30 01:28:06;;;;;;;1999.90;999.90;;;;;;;12.87;100.00;94289.69;5011455;28;20491;-57
2023/08/30 01:30:34;;;;;;;1999.90;999.90;;;;;;;12.88;100.00;94293.94;5011129;28;20198;-57
2023/08/30 01:33:01;;;;;;;1999.90;999.90;;;;;;;12.88;100.00;94293.94;5011014;28;20202;-57
2023/08/30 01:35:32;;;;;;;1999.90;999.90;;;;;;;12.92;100.00;94284.41;5010925;28;20198;-57
2023/08/30 01:37:59;;;;;;;1999.90;999.90;;;;;;;12.93;100.00;94285.94;5010761;28;20222;-56
2023/08/30 01:40:26;;;;;;;1999.90;999.90;;;;;;;12.92;100.00;94289.09;5011258;28;20199;-56
2023/08/30 01:42:53;;;;;;;1999.90;999.90;;;;;;;12.91;100.00;94288.38;5010578;28;20198;-57
2023/08/30 01:45:21;;;;;;;1999.90;999.90;;;;;;;12.92;100.00;94300.06;5011265;28;20182;-59
2023/08/30 01:47:48;;;;;;;1999.90;999.90;;;;;;;12.90;100.00;94297.03;5010970;28;20245;-58
2023/08/30 01:50:14;;;;;;;1999.90;999.90;;;;;;;12.88;100.00;94302.16;5010935;28;20373;-58
2023/08/30 01:52:41;;;;;;;1999.90;999.90;;;;;;;12.89;100.00;94295.47;5010567;28;20202;-59
2023/08/30 01:55:08;;;;;;;1999.90;999.90;;;;;;;12.89;100.00;94301.72;5010411;28;20239;-59
2023/08/30 01:57:34;;;;;;;1999.90;999.90;;;;;;;12.90;100.00;94299.75;5010487;28;20508;-59
2023/08/30 01:59:59;;;;;;;1999.90;999.90;;;;;;;12.91;100.00;94304.81;5011006;28;20187;-59
2023/08/30 02:02:28;;;;;;;1999.90;999.90;;;;;;;12.90;100.00;94299.75;5010815;28;20191;-59
2023/08/30 02:04:54;;;;;;;1999.90;999.90;;;;;;;12.87;100.00;94298.69;5010774;28;20189;-59
2023/08/30 02:07:24;;;;;;;1999.90;999.90;;;;;;;12.92;100.00;94303.59;5010366;28;20202;-59
2023/08/30 02:09:56;;;;;;;1999.90;999.90;;;;;;;12.87;100.00;94308.88;5010128;28;20517;-59
2023/08/30 02:12:25;;;;;;;1999.90;999.90;;;;;;;12.87;100.00;94315.13;5010211;28;20253;-57
2023/08/30 02:14:50;;;;;;;1999.90;999.90;;;;;;;12.89;100.00;94301.72;5010512;28;20194;-57
2023/08/30 02:17:17;;;;;;;1999.90;999.90;;;;;;;12.87;100.00;94300.66;5010119;28;20282;-54
2023/08/30 02:19:44;;;;;;;1999.90;999.90;;;;;;;12.89;100.00;94309.94;5010109;28;20204;-55
2023/08/30 02:22:10;;;;;;;1999.90;999.90;;;;;;;12.89;100.00;94311.91;5009957;28;20274;-57
2023/08/30 02:24:35;;;;;;;1999.90;999.90;;;;;;;12.89;100.00;94306.44;5009831;28;20206;-58
2023/08/30 02:27:01;;;;;;;1999.90;999.90;;;;;;;12.87;100.00;94308.88;5009300;28;20209;-58
2023/08/30 02:29:26;;;;;;;1999.90;999.90;;;;;;;12.90;100.00;94297.03;5009765;28;20257;-57
2023/08/30 02:31:51;;;;;;;1999.90;999.90;;;;;;;12.90;100.00;94297.78;5010096;28;20225;-57
2023/08/30 02:34:17;;;;;;;1999.90;999.90;;;;;;;12.89;100.00;94296.25;5009858;28;20202;-55
2023/08/30 02:36:42;;;;;;;1999.90;999.90;;;;;;;12.88;100.00;94307.66;5009719;28;20199;-58
2023/08/30 02:39:07;;;;;;;1999.90;999.90;;;;;;;12.91;100.00;94304.81;5009836;28;20202;-57
2023/08/30 02:41:34;;;;;;;1999.90;999.90;;;;;;;12.92;100.00;94305.56;5009393;28;20251;-56
2023/08/30 02:43:59;;;;;;;1999.90;999.90;;;;;;;12.95;100.00;94310.16;5010094;28;20550;-58
2023/08/30 02:46:24;;;;;;;1999.90;999.90;;;;;;;12.91;100.00;94309.50;5010083;28;20228;-58
2023/08/30 02:48:50;;;;;;;1999.90;999.90;;;;;;;12.93;100.00;94301.63;5009551;28;20205;-59
2023/08/30 02:51:16;;;;;;;1999.90;999.90;;;;;;;12.99;100.00;94310.81;5009358;28;20383;-57
2023/08/30 02:53:42;;;;;;;1999.90;999.90;;;;;;;13.00;100.00;94320.56;5009377;28;20226;-56
2023/08/30 02:56:07;;;;;;;1999.90;999.90;;;;;;;13.00;100.00;94318.59;5009606;28;20205;-55
2023/08/30 02:58:32;;;;;;;1999.90;999.90;;;;;;;13.01;100.00;94325.59;5009491;28;20261;-58
2023/08/30 03:00:58;;;;;;;1999.90;999.90;;;;;;;13.00;100.00;94324.09;5009422;28;20245;-51
2023/08/30 03:03:23;;;;;;;1999.90;999.90;;;;;;;12.96;100.00;94322.63;5009462;28;20274;-56
2023/08/30 03:05:48;;;;;;;1999.90;999.90;;;;;;;12.92;100.00;94322.00;5009286;28;20220;-55
2023/08/30 03:08:14;;;;;;;1999.90;999.90;;;;;;;12.95;100.00;94326.59;5009901;28;20198;-57
2023/08/30 03:10:39;;;;;;;1999.90;999.90;;;;;;;12.93;100.00;94323.53;5009027;28;20381;-54
2023/08/30 03:13:05;;;;;;;1999.90;999.90;;;;;;;12.90;100.00;94325.19;5009011;28;20170;-54
2023/08/30 03:15:32;;;;;;;1999.90;999.90;;;;;;;12.91;100.00;94318.50;5009437;28;20201;-54
2023/08/30 03:17:58;;;;;;;1999.90;999.90;;;;;;;12.92;100.00;94322.00;5009319;28;20215;-55
2023/08/30 03:20:23;;;;;;;1999.90;999.90;;;;;;;12.90;100.00;94318.94;5008970;28;20206;-56
2023/08/30 03:22:48;;;;;;;1999.90;999.90;;;;;;;12.90;100.00;94316.22;5008741;28;20203;-56
2023/08/30 03:25:14;;;;;;;1999.90;999.90;;;;;;;12.89;100.00;94307.22;5008956;28;20202;-58
2023/08/30 03:27:39;;;;;;;1999.90;999.90;;;;;;;12.88;100.00;94310.41;5008693;28;20386;-57
2023/08/30 03:30:06;;;;;;;1999.90;999.90;;;;;;;12.86;100.00;94308.09;5008849;28;20236;-54
2023/08/30 03:32:32;;;;;;;1999.90;999.90;;;;;;;12.89;100.00;94304.47;5008621;28;20191;-56
2023/08/30 03:34:57;;;;;;;1999.90;999.90;;;;;;;12.88;100.00;94304.91;5008660;28;20195;-55
2023/08/30 03:37:23;;;;;;;1999.90;999.90;;;;;;;12.85;100.00;94314.78;5008583;28;20230;-53
2023/08/30 03:39:48;;;;;;;1999.90;999.90;;;;;;;12.88;100.00;94313.91;5008143;28;20269;-56
2023/08/30 03:42:14;;;;;;;1999.90;999.90;;;;;;;12.93;100.00;94307.09;5008333;28;20190;-55
2023/08/30 03:44:39;;;;;;;1999.90;999.90;;;;;;;12.95;100.00;94315.63;5008928;28;20272;-57
2023/08/30 03:47:05;;;;;;;1999.90;999.90;;;;;;;12.94;100.00;94319.59;5008721;28;20487;-56
2023/08/30 03:49:30;;;;;;;1999.90;999.90;;;;;;;12.95;100.00;94315.63;5009026;28;20203;-57
2023/08/30 03:51:58;;;;;;;1999.90;999.90;;;;;;;12.96;100.00;94328.13;5008305;28;20333;-58
2023/08/30 03:54:24;;;;;;;1999.90;999.90;;;;;;;12.93;100.00;94318.06;5008397;28;20203;-55
2023/08/30 03:56:49;;;;;;;1999.90;999.90;;;;;;;12.91;100.00;94321.25;5008212;28;20199;-55
2023/08/30 03:59:14;;;;;;;1999.90;999.90;;;;;;;12.94;100.00;94319.59;5008527;28;20229;-58
2023/08/30 04:01:40;;;;;;;1999.90;999.90;;;;;;;12.92;100.00;94320.03;5008099;28;20210;-59
2023/08/30 04:04:05;;;;;;;1999.90;999.90;;;;;;;12.90;100.00;94316.22;5007911;28;20202;-58
2023/08/30 04:06:31;;;;;;;1999.90;999.90;;;;;;;12.86;100.00;94321.06;5008281;28;20206;-58
2023/08/30 04:08:56;;;;;;;1999.90;999.90;;;;;;;12.88;100.00;94318.63;5007962;28;20234;-56
2023/08/30 04:11:22;;;;;;;1999.90;999.90;;;;;;;12.86;100.00;94321.06;5008117;28;20197;-52
2023/08/30 04:13:47;;;;;;;1999.90;999.90;;;;;;;12.84;100.00;94326.97;5008014;28;20422;-54
2023/08/30 04:16:13;;;;;;;1999.90;999.90;;;;;;;12.87;100.00;94322.56;5008235;28;20207;-54
2023/08/30 04:18:38;;;;;;;1999.90;999.90;;;;;;;12.87;100.00;94326.09;5008008;28;20286;-54
2023/08/30 04:21:06;;;;;;;1999.90;999.90;;;;;;;12.89;100.00;94331.09;5007770;28;20233;-56
2023/08/30 04:23:31;;;;;;;1999.90;999.90;;;;;;;12.93;100.00;94329.03;5007763;28;20393;-55
2023/08/30 04:25:56;;;;;;;1999.90;999.90;;;;;;;12.96;100.00;94339.06;5007908;28;20213;-58
2023/08/30 04:28:22;;;;;;;1999.90;999.90;;;;;;;12.98;100.00;94344.94;5007582;28;20240;-57
2023/08/30 04:30:47;;;;;;;1999.90;999.90;;;;;;;12.99;100.00;94343.72;5007805;28;20249;-53
2023/08/30 04:33:13;;;;;;;1999.90;999.90;;;;;;;12.99;100.00;94343.72;5007596;28;20275;-56
2023/08/30 04:35:38;;;;;;;1999.90;999.90;;;;;;;12.97;100.00;94346.13;5007558;28;20264;-58
2023/08/30 04:38:04;;;;;;;1999.90;999.90;;;;;;;12.90;100.00;94340.88;5007759;28;20374;-59
2023/08/30 04:40:30;;;;;;;1999.90;999.90;;;;;;;12.92;100.00;94344.69;5008006;28;20207;-56
2023/08/30 04:42:57;;;;;;;1999.90;999.90;;;;;;;12.92;100.00;94343.91;5007393;28;20198;-52
2023/08/30 04:45:22;;;;;;;1999.90;999.90;;;;;;;12.87;100.00;94347.22;5007701;28;20187;-56
2023/08/30 04:47:48;;;;;;;1999.90;999.90;;;;;;;12.86;100.00;94335.50;5007931;28;20277;-53
2023/08/30 04:50:14;;;;;;;1999.90;999.90;;;;;;;12.90;100.00;94329.91;5007875;28;20250;-55
2023/08/30 04:52:39;;;;;;;1999.90;999.90;;;;;;;12.90;100.00;94343.63;5011728;28;20203;-53
2023/08/30 04:55:05;;;;;;;1999.90;999.90;;;;;;;12.89;100.00;94344.78;5011943;28;20261;-55
2023/08/30 04:57:31;;;;;;;1999.90;999.90;;;;;;;12.92;100.00;94349.41;5011325;28;20226;-55
2023/08/30 04:59:57;;;;;;;1999.90;999.90;;;;;;;12.95;100.00;94351.25;5011506;28;20382;-56
2023/08/30 05:02:22;;;;;;;1999.90;999.90;;;;;;;12.98;100.00;94364.09;5011933;28;20203;-56
2023/08/30 05:04:48;;;;;;;1999.90;999.90;;;;;;;12.77;100.00;94362.03;5012190;28;20257;-56
2023/08/30 05:07:13;;;;;;;1999.90;999.90;;;;;;;12.88;100.00;94359.72;5011506;28;20235;-56
2023/08/30 05:09:40;;;;;;;1999.90;999.90;;;;;;;12.88;100.00;94356.97;5011727;28;20202;-56
2023/08/30 05:12:06;;;;;;;1999.90;999.90;;;;;;;12.95;100.00;94343.81;5011459;28;20228;-51
2023/08/30 05:14:31;;;;;;;1999.90;999.90;;;;;;;12.93;100.00;94357.19;5011259;28;20209;-57
2023/08/30 05:16:56;;;;;;;1999.90;999.90;;;;;;;13.00;100.00;94350.72;5011570;28;20229;-57
2023/08/30 05:19:22;;;;;;;1999.90;999.90;;;;;;;13.00;100.00;94353.44;5011631;28;20225;-58
2023/08/30 05:21:51;;;;;;;1999.90;999.90;;;;;;;12.97;100.00;94351.59;5011423;28;20203;-56
2023/08/30 05:24:16;;;;;;;1999.90;999.90;;;;;;;13.04;100.00;94351.38;5010875;28;20198;-56
2023/08/30 05:26:42;;;;;;;1999.90;999.90;;;;;;;13.05;100.00;94359.13;5010806;28;20199;-56
2023/08/30 05:29:07;;;;;;;1999.90;999.90;;;;;;;13.03;100.00;94364.31;5010990;28;20198;-55
2023/08/30 05:31:32;;;;;;;1999.90;999.90;;;;;;;13.01;100.00;94363.22;5011045;28;20195;-54
2023/08/30 05:33:58;;;;;;;1999.90;999.90;;;;;;;13.10;100.00;94361.31;5011221;28;20191;-54
2023/08/30 05:36:23;;;;;;;1999.90;999.90;;;;;;;13.10;100.00;94360.56;5010729;28;20211;-53
2023/08/30 05:38:48;;;;;;;1999.90;999.90;;;;;;;13.12;100.00;94358.88;5010900;28;20214;-54
2023/08/30 05:41:14;;;;;;;1999.90;999.90;;;;;;;13.13;100.00;94349.47;5011138;28;20209;-57
2023/08/30 05:43:39;;;;;;;1999.90;999.90;;;;;;;13.12;100.00;94349.91;5010504;28;20199;-57
2023/08/30 05:46:04;;;;;;;1999.90;999.90;;;;;;;13.13;100.00;94354.19;5011002;28;20336;-56
2023/08/30 05:48:30;;;;;;;1999.90;999.90;;;;;;;13.21;100.00;94356.25;5010582;28;20241;-54
2023/08/30 05:50:55;;;;;;;1999.90;999.90;;;;;;;13.23;100.00;94358.53;5010310;28;20243;-56
2023/08/30 05:53:21;;;;;;;1999.90;999.90;;;;;;;13.23;100.00;94358.53;5011003;28;20240;-57
2023/08/30 05:55:46;;;;;;;1999.90;999.90;;;;;;;13.19;100.00;94364.13;5010860;28;20389;-56
2023/08/30 05:58:11;;;;;;;1999.90;999.90;;;;;;;13.19;100.00;94360.63;5010360;28;20214;-55
2023/08/30 06:00:37;;;;;;;1999.90;999.90;;;;;;;13.13;100.00;94360.44;5010373;28;20380;-56
2023/08/30 06:03:03;;;;;;;1999.90;999.90;;;;;;;13.20;100.00;94370.38;5010119;28;20222;-57
2023/08/30 06:05:28;;;;;;;1999.90;999.90;;;;;;;13.20;100.00;94364.91;5010161;28;20231;-54
2023/08/30 06:07:54;;;;;;;1999.90;999.90;;;;;;;13.19;100.00;94369.63;5010203;28;20282;-58
2023/08/30 06:10:19;;;;;;;1999.90;999.90;;;;;;;13.13;100.00;94370.63;5010081;28;20199;-56
2023/08/30 06:12:45;;;;;;;1999.90;999.90;;;;;;;13.14;100.00;94366.66;5010344;28;20206;-53
2023/08/30 06:15:10;;;;;;;1999.90;999.90;;;;;;;13.05;100.00;94377.56;5010109;28;20227;-56
2023/08/30 06:17:35;;;;;;;1999.90;999.90;;;;;;;13.29;100.00;94378.69;5010331;28;20210;-55
2023/08/30 06:20:01;;;;;;;1999.90;999.90;;;;;;;13.37;100.00;94379.97;5010361;28;20202;-54
2023/08/30 06:22:26;;;;;;;1999.90;999.90;;;;;;;13.52;100.00;94386.50;5010421;28;20274;-52
2023/08/30 06:24:52;;;;;;;1999.90;999.90;;;;;;;13.53;100.00;94382.53;5009769;28;20210;-57
2023/08/30 06:27:17;;;;;;;1999.90;999.90;;;;;;;13.55;100.00;94385.56;5010144;28;20203;-55
2023/08/30 06:29:43;;;;;;;1999.90;999.90;;;;;;;13.57;100.00;94394.13;5010029;28;20202;-53
2023/08/30 06:32:08;;;;;;;1999.90;999.90;;;;;;;13.57;100.00;94399.63;5009828;28;20206;-54
2023/08/30 06:34:33;;;;;;;1999.90;999.90;;;;;;;13.67;100.00;94387.50;5009566;28;20199;-57
2023/08/30 06:36:59;;;;;;;1999.90;999.90;;;;;;;13.65;100.00;94386.44;5009615;28;20195;-53
2023/08/30 06:39:24;;;;;;;1999.90;999.90;;;;;;;13.79;100.00;94388.63;5009729;28;20206;-57
2023/08/30 06:41:49;;;;;;;1999.90;999.90;;;;;;;13.80;100.00;94396.41;5009658;28;20192;-54
2023/08/30 06:44:16;;;;;;;1999.90;999.90;;;;;;;13.83;100.00;94395.53;5009854;28;20194;-58
2023/08/30 06:46:42;;;;;;;1999.90;999.90;;;;;;;13.86;100.00;94394.63;5009433;28;20203;-55
2023/08/30 06:49:09;;;;;;;1999.90;999.90;;;;;;;13.86;100.00;94402.09;5009815;28;20448;-56
2023/08/30 06:51:34;;;;;;;1999.90;999.90;;;;;;;13.99;100.00;94400.78;5009874;28;20209;-50
2023/08/30 06:54:00;;;;;;;1999.90;999.90;;;;;;;13.89;100.00;94404.72;5009746;28;20203;-56
2023/08/30 06:56:26;;;;;;;1999.90;999.90;;;;;;;14.01;100.00;94405.84;5009789;28;20207;-53
2023/08/30 06:58:52;;;;;;;1999.90;999.90;;;;;;;14.03;100.00;94411.66;5009229;28;20578;-56
2023/08/30 07:01:17;;;;;;;1999.90;999.90;;;;;;;13.97;100.00;94416.97;5009064;28;20203;-55
2023/08/30 07:03:43;;;;;;;1999.90;999.90;;;;;;;14.03;100.00;94409.69;5009464;28;20199;-58
2023/08/30 07:06:09;;;;;;;1999.90;999.90;;;;;;;14.02;100.00;94413.63;5009546;28;20206;-56
2023/08/30 07:08:34;;;;;;;1999.90;999.90;;;;;;;13.98;100.00;94410.25;5008977;28;20218;-56
2023/08/30 07:11:00;;;;;;;1999.90;999.90;;;;;;;13.96;100.00;94412.69;5009695;28;20206;-57
2023/08/30 07:13:25;;;;;;;1999.90;999.90;;;;;;;13.94;100.00;94406.09;5008739;28;20207;-54
2023/08/30 07:15:51;;;;;;;1999.90;999.90;;;;;;;13.97;100.00;94406.00;5009136;28;20210;-58
2023/08/30 07:18:16;;;;;;;1999.90;999.90;;;;;;;14.02;100.00;94397.16;5008819;28;20238;-54
2023/08/30 07:20:42;;;;;;;1999.90;999.90;;;;;;;14.03;100.00;94397.94;5009501;28;20211;-57
2023/08/30 07:23:07;;;;;;;1999.90;999.90;;;;;;;14.03;100.00;94390.47;5008937;28;20507;-63
2023/08/30 07:25:33;;;;;;;1999.90;999.90;;;;;;;14.00;100.00;94393.34;5008798;28;20203;-64
2023/08/30 07:28:00;;;;;;;1999.90;999.90;;;;;;;14.00;100.00;94388.63;5008698;28;20233;-64
2023/08/30 07:30:25;;;;;;;1999.90;999.90;;;;;;;13.97;100.00;94389.50;5009128;28;20266;-63
2023/08/30 07:32:50;;;;;;;1999.90;999.90;;;;;;;14.06;100.00;94403.28;5008509;28;20191;-63
2023/08/30 07:35:16;;;;;;;1999.90;999.90;;;;;;;14.07;100.00;94391.09;5008636;28;20206;-63
2023/08/30 07:37:41;;;;;;;1999.90;999.90;;;;;;;14.30;100.00;94401.63;5008487;28;20211;-63
2023/08/30 07:40:08;;;;;;;1999.90;999.90;;;;;;;14.38;100.00;94391.88;5008621;28;20195;-64
2023/08/30 07:42:33;;;;;;;1999.90;999.90;;;;;;;14.43;100.00;94388.56;5008448;28;20258;-64
2023/08/30 07:44:59;;;;;;;1999.90;999.90;;;;;;;14.51;100.00;94387.06;5008459;28;20195;-65
2023/08/30 07:47:24;;;;;;;1999.90;999.90;;;;;;;14.56;100.00;94410.41;5008518;28;20241;-64
2023/08/30 07:49:49;;;;;;;1999.90;999.90;;;;;;;14.60;100.00;94411.06;5008865;28;20183;-62
2023/08/30 07:52:15;;;;;;;1999.90;999.90;;;;;;;14.67;100.00;94414.28;5008241;28;20203;-64
2023/08/30 07:54:41;;;;;;;1999.90;999.90;;;;;;;14.67;100.00;94411.53;5008665;28;20195;-63
2023/08/30 07:57:07;;;;;;;1999.90;999.90;;;;;;;14.77;100.00;94395.81;5008137;28;20318;-65
2023/08/30 07:59:33;;;;;;;1999.90;999.90;;;;;;;14.76;100.00;94384.09;5008421;28;20195;-64
2023/08/30 08:01:59;;;;;;;1999.90;999.90;;;;;;;14.72;100.00;94377.94;5008478;28;20210;-64
2023/08/30 08:04:24;;;;;;;1999.90;999.90;;;;;;;14.81;100.00;94342.25;5008320;28;20191;-65
2023/08/30 08:06:49;;;;;;;1999.90;999.90;;;;;;;14.68;100.00;94338.84;5008133;28;20207;-64
2023/08/30 08:09:15;;;;;;;1999.90;999.90;;;;;;;14.71;100.00;94307.72;5008127;28;20256;-64
2023/08/30 08:11:43;;;;;;;1999.90;999.90;;;;;;;14.76;100.00;94296.13;5008365;28;20198;-66
2023/08/30 08:14:11;;;;;;;1999.90;999.90;;;;;;;14.70;100.00;94275.97;5008051;28;20195;-66
2023/08/30 08:16:37;;;;;;;1999.90;999.90;;;;;;;14.70;100.00;94253.97;5008151;28;20241;-66
2023/08/30 08:19:03;;;;;;;1999.90;999.90;;;;;;;14.78;100.00;94227.72;5008481;28;20203;-66
2023/08/30 08:21:28;;;;;;;1999.90;999.90;;;;;;;14.80;100.00;94203.28;5008517;28;20195;-66
2023/08/30 08:23:53;;;;;;;1999.90;999.90;;;;;;;14.90;100.00;94185.53;5008027;28;20199;-66
2023/08/30 08:26:19;;;;;;;1999.90;999.90;;;;;;;15.06;100.00;94154.97;5008056;28;20198;-65
2023/08/30 08:28:44;;;;;;;1999.90;999.90;;;;;;;15.13;100.00;94142.88;5007893;28;20517;-67
2023/08/30 08:31:10;;;;;;;1999.90;999.90;;;;;;;15.08;100.00;94118.78;5007883;28;20392;-67
2023/08/30 08:33:35;;;;;;;1999.90;999.90;;;;;;;14.99;100.00;94122.31;5007770;28;20187;-66
2023/08/30 08:36:01;;;;;;;1999.90;999.90;;;;;;;15.03;100.00;94100.13;5008216;28;20198;-66
2023/08/30 08:38:26;;;;;;;1999.90;999.90;;;;;;;15.14;100.00;94084.69;5007560;28;20253;-67
2023/08/30 08:41:03;;;;;;;1999.90;999.90;;;;;;;15.34;100.00;94054.63;5008038;28;20270;-66
2023/08/30 08:43:29;;;;;;;1999.90;999.90;;;;;;;15.28;100.00;94040.00;5007867;28;20265;-66
2023/08/30 08:45:59;;;;;;;1999.90;999.90;;;;;;;15.32;100.00;93996.56;5007747;28;20195;-66
2023/08/30 08:48:28;;;;;;;1999.90;999.90;;;;;;;15.06;100.00;93983.72;5008211;28;20167;-67
2023/08/30 08:50:53;;;;;;;1999.90;999.90;;;;;;;15.39;100.00;93977.00;5007678;28;20191;-66
2023/08/30 08:53:19;;;;;;;1999.90;999.90;;;;;;;15.50;100.00;93937.94;5007877;28;20213;-67
2023/08/30 08:55:46;;;;;;;1999.90;999.90;;;;;;;15.88;100.00;93916.66;5007441;28;20206;-68
2023/08/30 08:58:12;;;;;;;1999.90;999.90;;;;;;;16.39;100.00;93903.28;5007355;28;20218;-66
2023/08/30 09:00:38;;;;;;;1999.90;999.90;;;;;;;16.95;100.00;93879.31;5007537;28;20195;-66
2023/08/30 09:03:05;;;;;;;1999.90;999.90;;;;;;;16.97;100.00;93854.78;5007342;28;20221;-67
2023/08/30 09:05:31;;;;;;;1999.90;999.90;;;;;;;16.91;100.00;93823.63;5007636;28;20241;-66
2023/08/30 09:07:56;;;;;;;1999.90;999.90;;;;;;;16.94;100.00;93800.59;5007243;28;20195;-67
2023/08/30 09:10:22;;;;;;;1999.90;999.90;;;;;;;17.90;100.00;93742.66;5007810;28;20212;-66
2023/08/30 09:12:48;;;;;;;1999.90;999.90;;;;;;;19.04;100.00;93693.25;5007297;28;20195;-66
2023/08/30 09:15:15;;;;;;;1999.90;999.90;;;;;;;19.98;100.00;93649.81;5007572;28;20195;-67
2023/08/30 09:17:40;;;;;;;1999.90;999.90;;;;;;;20.54;100.00;93626.25;5007630;28;20242;-69
2023/08/30 09:20:10;;;;;;;1999.90;999.90;;;;;;;20.66;100.00;93672.13;5007932;28;20262;-67
2023/08/30 09:22:43;;;;;;;1999.90;999.90;;;;;;;20.42;100.00;93752.34;5007519;28;20203;-65
2023/08/30 09:25:10;;;;;;;1999.90;999.90;;;;;;;20.06;100.00;93794.22;5007169;28;20248;-66
2023/08/30 09:27:36;;;;;;;1999.90;999.90;;;;;;;20.72;100.00;93796.97;5007110;28;20199;-64
2023/08/30 09:30:07;;;;;;;1999.90;999.90;;;;;;;21.42;100.00;93817.44;5007388;28;20203;-66
2023/08/30 09:32:38;;;;;;;1999.90;999.90;;;;;;;21.88;100.00;93881.47;5007089;28;20198;-67
2023/08/30 09:35:04;;;;;;;1999.90;999.90;;;;;;;21.60;100.00;93908.56;5007657;28;20206;-68
2023/08/30 09:37:30;;;;;;;1999.90;999.90;;;;;;;21.53;100.00;93925.03;5008869;28;20218;-68
2023/08/30 09:39:55;;;;;;;1999.90;999.90;;;;;;;20.81;100.00;93966.75;5010918;28;20203;-66
2023/08/30 09:42:22;;;;;;;1999.90;999.90;;;;;;;20.55;100.00;93949.56;5011131;28;20175;-67
2023/08/30 09:44:48;;;;;;;1999.90;999.90;;;;;;;20.39;100.00;93966.19;5011374;28;20198;-67
2023/08/30 09:47:15;;;;;;;1999.90;999.90;;;;;;;20.20;100.00;93963.09;5011266;28;20187;-66
2023/08/30 09:49:45;;;;;;;1999.90;999.90;;;;;;;20.26;100.00;93949.25;5010479;28;20210;-66
2023/08/30 09:52:14;;;;;;;1999.90;999.90;;;;;;;21.00;100.00;93962.22;5010816;28;20199;-66
2023/08/30 09:54:41;;;;;;;1999.90;999.90;;;;;;;21.79;100.00;93986.63;5010723;28;20191;-67
2023/08/30 09:57:07;;;;;;;1999.90;999.90;;;;;;;22.79;100.00;93975.81;5010598;28;20203;-67
2023/08/30 09:59:32;;;;;;;1999.90;999.90;;;;;;;23.29;100.00;94063.34;5010316;28;20195;-67
2023/08/30 10:02:00;;;;;;;1999.90;999.90;;;;;;;22.35;100.00;94233.56;5010848;28;20187;-67
2023/08/30 10:04:26;;;;;;;1999.90;999.90;;;;;;;22.26;100.00;94236.56;5010211;28;20223;-67
2023/08/30 10:06:53;;;;;;;1999.90;999.90;;;;;;;22.06;100.00;94191.59;5010720;28;20190;-66
2023/08/30 10:09:19;;;;;;;1999.90;999.90;;;;;;;22.38;100.00;94168.53;5009999;28;20206;-68
2023/08/30 10:11:45;;;;;;;1999.90;999.90;;;;;;;22.29;100.00;94196.63;5010746;28;20180;-66
2023/08/30 10:14:12;;;;;;;1999.90;999.90;;;;;;;21.99;100.00;94190.06;5010293;28;20202;-68
2023/08/30 10:16:43;;;;;;;1999.90;999.90;;;;;;;21.78;100.00;94191.59;5010206;28;20203;-67
2023/08/30 10:19:14;;;;;;;1999.90;999.90;;;;;;;21.30;100.00;94213.22;5010156;28;20221;-66
2023/08/30 10:21:41;;;;;;;1999.90;999.90;;;;;;;21.68;100.00;94165.25;5010027;28;20202;-67
2023/08/30 10:24:09;;;;;;;1999.90;999.90;;;;;;;21.43;100.00;94191.28;5009912;28;20281;-68
2023/08/30 10:26:37;;;;;;;1999.90;999.90;;;;;;;21.40;100.00;94178.38;5009988;28;20267;-66
2023/08/30 10:29:04;;;;;;;1999.90;999.90;;;;;;;21.51;100.00;94197.84;5009741;28;20203;-66
2023/08/30 10:31:29;;;;;;;1999.90;999.90;;;;;;;21.27;100.00;94266.97;5010209;28;20270;-67
2023/08/30 10:33:56;;;;;;;1999.90;999.90;;;;;;;21.56;100.00;94324.94;5009982;28;20206;-66
2023/08/30 10:36:26;;;;;;;1999.90;999.90;;;;;;;21.93;100.00;94381.19;5010322;28;20201;-66
2023/08/30 10:38:52;;;;;;;1999.90;999.90;;;;;;;22.79;100.00;94432.47;5010108;28;20221;-66
2023/08/30 10:41:25;;;;;;;1999.90;999.90;;;;;;;22.41;100.00;94506.28;5009772;28;20195;-66
2023/08/30 10:43:57;;;;;;;1999.90;999.90;;;;;;;22.70;100.00;94513.47;5010102;28;20203;-66